sensor_id;sensor_type;location;lat;lon;timestamp;P1;durP1;ratioP1;P2;durP2;ratioP2
41323;SDS011;27073;51.128;4.220;2022-12-01T00:00:39;35.60;;;27.73;;
41323;SDS011;27073;51.128;4.220;2022-12-01T00:03:05;35.75;;;27.88;;
41323;SDS011;27073;51.128;4.220;2022-12-01T00:05:31;40.28;;;28.17;;
41323;SDS011;27073;51.128;4.220;2022-12-01T00:07:57;37.00;;;25.55;;
41323;SDS011;27073;51.128;4.220;2022-12-01T00:10:24;31.65;;;25.25;;
41323;SDS011;27073;51.128;4.220;2022-12-01T00:15:27;32.90;;;25.27;;
41323;SDS011;27073;51.128;4.220;2022-12-01T00:17:54;33.15;;;26.27;;
41323;SDS011;27073;51.128;4.220;2022-12-01T00:20:21;34.65;;;25.67;;
41323;SDS011;27073;51.128;4.220;2022-12-01T00:22:47;34.85;;;26.73;;
41323;SDS011;27073;51.128;4.220;2022-12-01T00:25:14;34.00;;;26.40;;
41323;SDS011;27073;51.128;4.220;2022-12-01T00:27:41;37.20;;;25.25;;
41323;SDS011;27073;51.128;4.220;2022-12-01T00:30:09;38.92;;;27.90;;
41323;SDS011;27073;51.128;4.220;2022-12-01T00:32:36;38.40;;;25.92;;
41323;SDS011;27073;51.128;4.220;2022-12-01T00:35:03;35.47;;;26.98;;
41323;SDS011;27073;51.128;4.220;2022-12-01T00:37:29;35.58;;;25.80;;
41323;SDS011;27073;51.128;4.220;2022-12-01T00:39:56;37.20;;;25.45;;
41323;SDS011;27073;51.128;4.220;2022-12-01T00:42:22;34.08;;;25.52;;
41323;SDS011;27073;51.128;4.220;2022-12-01T00:44:48;35.40;;;25.08;;
41323;SDS011;27073;51.128;4.220;2022-12-01T00:47:14;36.55;;;25.58;;
41323;SDS011;27073;51.128;4.220;2022-12-01T00:49:40;37.22;;;25.65;;
41323;SDS011;27073;51.128;4.220;2022-12-01T00:52:06;34.53;;;26.63;;
41323;SDS011;27073;51.128;4.220;2022-12-01T00:54:32;40.53;;;29.40;;
41323;SDS011;27073;51.128;4.220;2022-12-01T00:56:58;39.35;;;29.13;;
41323;SDS011;27073;51.128;4.220;2022-12-01T00:59:24;44.20;;;31.85;;
41323;SDS011;27073;51.128;4.220;2022-12-01T01:01:50;45.92;;;33.38;;
41323;SDS011;27073;51.128;4.220;2022-12-01T01:04:16;50.35;;;34.00;;
41323;SDS011;27073;51.128;4.220;2022-12-01T01:06:42;50.35;;;33.33;;
41323;SDS011;27073;51.128;4.220;2022-12-01T01:09:09;53.20;;;34.40;;
41323;SDS011;27073;51.128;4.220;2022-12-01T01:11:35;56.67;;;35.17;;
41323;SDS011;27073;51.128;4.220;2022-12-01T01:14:01;47.83;;;34.47;;
41323;SDS011;27073;51.128;4.220;2022-12-01T01:16:27;56.88;;;37.30;;
41323;SDS011;27073;51.128;4.220;2022-12-01T01:18:53;52.50;;;37.35;;
41323;SDS011;27073;51.128;4.220;2022-12-01T01:21:20;56.78;;;37.65;;
41323;SDS011;27073;51.128;4.220;2022-12-01T01:23:47;52.53;;;36.72;;
41323;SDS011;27073;51.128;4.220;2022-12-01T01:26:15;57.55;;;38.53;;
41323;SDS011;27073;51.128;4.220;2022-12-01T01:28:46;53.42;;;37.60;;
41323;SDS011;27073;51.128;4.220;2022-12-01T01:31:14;57.08;;;39.53;;
41323;SDS011;27073;51.128;4.220;2022-12-01T01:33:41;50.05;;;37.03;;
41323;SDS011;27073;51.128;4.220;2022-12-01T01:36:07;57.85;;;38.17;;
41323;SDS011;27073;51.128;4.220;2022-12-01T01:38:34;52.45;;;36.92;;
41323;SDS011;27073;51.128;4.220;2022-12-01T01:41:00;50.22;;;36.55;;
41323;SDS011;27073;51.128;4.220;2022-12-01T01:43:43;51.80;;;37.15;;
41323;SDS011;27073;51.128;4.220;2022-12-01T01:46:30;53.75;;;36.63;;
41323;SDS011;27073;51.128;4.220;2022-12-01T01:49:00;50.53;;;34.42;;
41323;SDS011;27073;51.128;4.220;2022-12-01T01:54:07;48.72;;;34.33;;
41323;SDS011;27073;51.128;4.220;2022-12-01T01:56:50;47.17;;;33.92;;
41323;SDS011;27073;51.128;4.220;2022-12-01T01:59:18;47.50;;;32.95;;
41323;SDS011;27073;51.128;4.220;2022-12-01T02:02:02;42.08;;;31.80;;
41323;SDS011;27073;51.128;4.220;2022-12-01T02:04:30;40.92;;;31.55;;
41323;SDS011;27073;51.128;4.220;2022-12-01T02:06:58;47.50;;;32.70;;
41323;SDS011;27073;51.128;4.220;2022-12-01T02:09:24;46.67;;;34.67;;
41323;SDS011;27073;51.128;4.220;2022-12-01T02:17:00;45.08;;;32.78;;
41323;SDS011;27073;51.128;4.220;2022-12-01T02:30:43;41.92;;;30.52;;
41323;SDS011;27073;51.128;4.220;2022-12-01T02:43:30;42.95;;;29.88;;
41323;SDS011;27073;51.128;4.220;2022-12-01T02:46:12;41.80;;;29.70;;
41323;SDS011;27073;51.128;4.220;2022-12-01T02:48:45;39.67;;;28.65;;
41323;SDS011;27073;51.128;4.220;2022-12-01T02:51:17;42.03;;;30.08;;
41323;SDS011;27073;51.128;4.220;2022-12-01T02:53:49;38.55;;;29.92;;
41323;SDS011;27073;51.128;4.220;2022-12-01T02:56:18;37.78;;;29.17;;
41323;SDS011;27073;51.128;4.220;2022-12-01T03:04:07;42.58;;;29.25;;
41323;SDS011;27073;51.128;4.220;2022-12-01T03:06:57;38.38;;;29.40;;
41323;SDS011;27073;51.128;4.220;2022-12-01T03:12:21;42.58;;;29.83;;
41323;SDS011;27073;51.128;4.220;2022-12-01T03:17:55;34.28;;;27.00;;
41323;SDS011;27073;51.128;4.220;2022-12-01T03:25:51;34.70;;;25.42;;
41323;SDS011;27073;51.128;4.220;2022-12-01T03:28:21;35.08;;;24.45;;
41323;SDS011;27073;51.128;4.220;2022-12-01T03:30:53;38.30;;;25.02;;
41323;SDS011;27073;51.128;4.220;2022-12-01T03:33:27;37.88;;;25.90;;
41323;SDS011;27073;51.128;4.220;2022-12-01T03:36:08;36.70;;;24.92;;
41323;SDS011;27073;51.128;4.220;2022-12-01T03:39:03;36.03;;;23.40;;
41323;SDS011;27073;51.128;4.220;2022-12-01T03:41:36;33.22;;;21.58;;
41323;SDS011;27073;51.128;4.220;2022-12-01T03:44:08;35.28;;;23.02;;
41323;SDS011;27073;51.128;4.220;2022-12-01T03:46:46;30.08;;;22.65;;
41323;SDS011;27073;51.128;4.220;2022-12-01T03:49:20;31.10;;;21.45;;
41323;SDS011;27073;51.128;4.220;2022-12-01T04:00:11;33.17;;;22.33;;
41323;SDS011;27073;51.128;4.220;2022-12-01T04:02:39;30.58;;;20.83;;
41323;SDS011;27073;51.128;4.220;2022-12-01T04:05:05;33.55;;;22.35;;
41323;SDS011;27073;51.128;4.220;2022-12-01T04:07:33;32.80;;;22.17;;
41323;SDS011;27073;51.128;4.220;2022-12-01T04:10:00;33.83;;;22.17;;
41323;SDS011;27073;51.128;4.220;2022-12-01T04:12:25;36.10;;;22.95;;
41323;SDS011;27073;51.128;4.220;2022-12-01T04:14:57;31.20;;;21.27;;
41323;SDS011;27073;51.128;4.220;2022-12-01T04:17:25;32.25;;;22.63;;
41323;SDS011;27073;51.128;4.220;2022-12-01T04:19:52;33.88;;;22.42;;
41323;SDS011;27073;51.128;4.220;2022-12-01T04:22:17;31.15;;;22.08;;
41323;SDS011;27073;51.128;4.220;2022-12-01T04:24:44;32.20;;;21.48;;
41323;SDS011;27073;51.128;4.220;2022-12-01T04:27:10;33.65;;;21.70;;
41323;SDS011;27073;51.128;4.220;2022-12-01T04:29:36;31.70;;;21.90;;
41323;SDS011;27073;51.128;4.220;2022-12-01T04:32:02;29.13;;;21.02;;
41323;SDS011;27073;51.128;4.220;2022-12-01T04:34:27;34.08;;;21.65;;
41323;SDS011;27073;51.128;4.220;2022-12-01T04:36:53;33.65;;;21.52;;
41323;SDS011;27073;51.128;4.220;2022-12-01T04:39:19;32.15;;;21.33;;
41323;SDS011;27073;51.128;4.220;2022-12-01T04:41:45;31.00;;;21.00;;
41323;SDS011;27073;51.128;4.220;2022-12-01T04:44:10;31.02;;;20.83;;
41323;SDS011;27073;51.128;4.220;2022-12-01T04:46:36;31.38;;;21.65;;
41323;SDS011;27073;51.128;4.220;2022-12-01T04:49:02;30.92;;;21.48;;
41323;SDS011;27073;51.128;4.220;2022-12-01T04:51:29;32.50;;;21.80;;
41323;SDS011;27073;51.128;4.220;2022-12-01T04:53:55;31.40;;;22.25;;
41323;SDS011;27073;51.128;4.220;2022-12-01T04:56:20;28.73;;;20.98;;
41323;SDS011;27073;51.128;4.220;2022-12-01T04:58:46;29.10;;;21.30;;
41323;SDS011;27073;51.128;4.220;2022-12-01T05:01:13;32.75;;;23.50;;
41323;SDS011;27073;51.128;4.220;2022-12-01T05:03:42;35.33;;;23.17;;
41323;SDS011;27073;51.128;4.220;2022-12-01T05:06:10;34.72;;;22.67;;
41323;SDS011;27073;51.128;4.220;2022-12-01T05:08:38;30.33;;;21.88;;
41323;SDS011;27073;51.128;4.220;2022-12-01T05:11:04;33.00;;;23.23;;
41323;SDS011;27073;51.128;4.220;2022-12-01T05:13:32;30.90;;;21.70;;
41323;SDS011;27073;51.128;4.220;2022-12-01T05:16:07;31.23;;;21.55;;
41323;SDS011;27073;51.128;4.220;2022-12-01T05:18:35;28.98;;;21.15;;
41323;SDS011;27073;51.128;4.220;2022-12-01T05:21:00;32.35;;;21.45;;
41323;SDS011;27073;51.128;4.220;2022-12-01T05:23:28;34.55;;;22.80;;
41323;SDS011;27073;51.128;4.220;2022-12-01T05:25:55;34.22;;;22.80;;
41323;SDS011;27073;51.128;4.220;2022-12-01T05:28:21;29.90;;;21.60;;
41323;SDS011;27073;51.128;4.220;2022-12-01T05:30:49;31.70;;;21.45;;
41323;SDS011;27073;51.128;4.220;2022-12-01T05:33:15;30.98;;;22.10;;
41323;SDS011;27073;51.128;4.220;2022-12-01T05:35:41;34.25;;;22.73;;
41323;SDS011;27073;51.128;4.220;2022-12-01T05:38:07;31.63;;;22.27;;
41323;SDS011;27073;51.128;4.220;2022-12-01T05:40:33;40.92;;;24.08;;
41323;SDS011;27073;51.128;4.220;2022-12-01T05:42:59;32.58;;;21.98;;
41323;SDS011;27073;51.128;4.220;2022-12-01T05:45:25;39.60;;;25.80;;
41323;SDS011;27073;51.128;4.220;2022-12-01T05:47:58;40.50;;;25.23;;
41323;SDS011;27073;51.128;4.220;2022-12-01T05:50:25;36.53;;;24.45;;
41323;SDS011;27073;51.128;4.220;2022-12-01T05:52:53;39.13;;;24.65;;
41323;SDS011;27073;51.128;4.220;2022-12-01T05:55:19;44.58;;;25.20;;
41323;SDS011;27073;51.128;4.220;2022-12-01T05:57:45;41.08;;;26.80;;
41323;SDS011;27073;51.128;4.220;2022-12-01T06:00:11;37.67;;;25.88;;
41323;SDS011;27073;51.128;4.220;2022-12-01T06:02:39;37.03;;;25.92;;
41323;SDS011;27073;51.128;4.220;2022-12-01T06:05:05;40.15;;;25.45;;
41323;SDS011;27073;51.128;4.220;2022-12-01T06:07:31;37.17;;;25.17;;
41323;SDS011;27073;51.128;4.220;2022-12-01T06:10:00;38.72;;;25.63;;
41323;SDS011;27073;51.128;4.220;2022-12-01T06:12:26;39.25;;;25.83;;
41323;SDS011;27073;51.128;4.220;2022-12-01T06:14:52;42.58;;;25.77;;
41323;SDS011;27073;51.128;4.220;2022-12-01T06:17:18;36.72;;;24.45;;
41323;SDS011;27073;51.128;4.220;2022-12-01T06:19:44;37.97;;;26.60;;
41323;SDS011;27073;51.128;4.220;2022-12-01T06:22:11;37.40;;;25.20;;
41323;SDS011;27073;51.128;4.220;2022-12-01T06:24:38;40.95;;;29.48;;
41323;SDS011;27073;51.128;4.220;2022-12-01T06:27:03;39.40;;;26.95;;
41323;SDS011;27073;51.128;4.220;2022-12-01T06:29:29;36.47;;;24.63;;
41323;SDS011;27073;51.128;4.220;2022-12-01T06:31:55;41.75;;;26.83;;
41323;SDS011;27073;51.128;4.220;2022-12-01T06:34:20;38.53;;;28.50;;
41323;SDS011;27073;51.128;4.220;2022-12-01T06:36:46;41.55;;;28.80;;
41323;SDS011;27073;51.128;4.220;2022-12-01T06:39:14;40.55;;;27.55;;
41323;SDS011;27073;51.128;4.220;2022-12-01T06:41:40;42.47;;;26.98;;
41323;SDS011;27073;51.128;4.220;2022-12-01T06:44:06;39.67;;;26.58;;
41323;SDS011;27073;51.128;4.220;2022-12-01T06:46:32;41.40;;;28.10;;
41323;SDS011;27073;51.128;4.220;2022-12-01T06:48:58;41.00;;;29.15;;
41323;SDS011;27073;51.128;4.220;2022-12-01T06:51:24;42.67;;;27.80;;
41323;SDS011;27073;51.128;4.220;2022-12-01T06:53:53;40.42;;;26.52;;
41323;SDS011;27073;51.128;4.220;2022-12-01T06:56:19;39.40;;;26.95;;
41323;SDS011;27073;51.128;4.220;2022-12-01T06:58:45;40.65;;;28.83;;
41323;SDS011;27073;51.128;4.220;2022-12-01T07:01:12;42.53;;;28.00;;
41323;SDS011;27073;51.128;4.220;2022-12-01T07:03:38;39.05;;;27.85;;
41323;SDS011;27073;51.128;4.220;2022-12-01T07:06:04;43.15;;;28.35;;
41323;SDS011;27073;51.128;4.220;2022-12-01T07:08:31;43.28;;;30.02;;
41323;SDS011;27073;51.128;4.220;2022-12-01T07:11:04;43.17;;;28.25;;
41323;SDS011;27073;51.128;4.220;2022-12-01T07:13:32;45.95;;;30.35;;
41323;SDS011;27073;51.128;4.220;2022-12-01T07:15:58;40.42;;;29.05;;
41323;SDS011;27073;51.128;4.220;2022-12-01T07:18:25;41.85;;;28.58;;
41323;SDS011;27073;51.128;4.220;2022-12-01T07:20:51;44.50;;;29.15;;
41323;SDS011;27073;51.128;4.220;2022-12-01T07:23:16;46.00;;;29.85;;
41323;SDS011;27073;51.128;4.220;2022-12-01T07:25:42;42.97;;;30.13;;
41323;SDS011;27073;51.128;4.220;2022-12-01T07:28:08;48.08;;;31.92;;
41323;SDS011;27073;51.128;4.220;2022-12-01T07:30:33;44.72;;;30.15;;
41323;SDS011;27073;51.128;4.220;2022-12-01T07:32:59;44.75;;;30.60;;
41323;SDS011;27073;51.128;4.220;2022-12-01T07:35:25;51.58;;;31.27;;
41323;SDS011;27073;51.128;4.220;2022-12-01T07:37:54;49.97;;;33.47;;
41323;SDS011;27073;51.128;4.220;2022-12-01T07:40:20;47.55;;;32.10;;
41323;SDS011;27073;51.128;4.220;2022-12-01T07:42:47;47.80;;;31.90;;
41323;SDS011;27073;51.128;4.220;2022-12-01T07:45:12;57.20;;;37.70;;
41323;SDS011;27073;51.128;4.220;2022-12-01T07:47:38;55.15;;;34.45;;
41323;SDS011;27073;51.128;4.220;2022-12-01T07:50:04;51.92;;;36.00;;
41323;SDS011;27073;51.128;4.220;2022-12-01T07:52:30;57.28;;;36.20;;
41323;SDS011;27073;51.128;4.220;2022-12-01T07:54:56;58.55;;;37.25;;
41323;SDS011;27073;51.128;4.220;2022-12-01T07:57:21;57.08;;;35.92;;
41323;SDS011;27073;51.128;4.220;2022-12-01T07:59:47;52.63;;;35.17;;
41323;SDS011;27073;51.128;4.220;2022-12-01T08:02:13;50.13;;;34.28;;
41323;SDS011;27073;51.128;4.220;2022-12-01T08:04:39;51.45;;;34.40;;
41323;SDS011;27073;51.128;4.220;2022-12-01T08:07:05;54.28;;;32.63;;
41323;SDS011;27073;51.128;4.220;2022-12-01T08:09:30;55.53;;;33.88;;
41323;SDS011;27073;51.128;4.220;2022-12-01T08:11:56;70.20;;;36.53;;
41323;SDS011;27073;51.128;4.220;2022-12-01T08:14:22;53.25;;;34.15;;
41323;SDS011;27073;51.128;4.220;2022-12-01T08:16:47;54.40;;;34.65;;
41323;SDS011;27073;51.128;4.220;2022-12-01T08:19:13;53.13;;;34.03;;
41323;SDS011;27073;51.128;4.220;2022-12-01T08:21:39;50.63;;;32.65;;
41323;SDS011;27073;51.128;4.220;2022-12-01T08:24:05;51.35;;;32.38;;
41323;SDS011;27073;51.128;4.220;2022-12-01T08:26:31;50.88;;;32.63;;
41323;SDS011;27073;51.128;4.220;2022-12-01T08:28:57;52.97;;;34.80;;
41323;SDS011;27073;51.128;4.220;2022-12-01T08:31:24;51.80;;;32.72;;
41323;SDS011;27073;51.128;4.220;2022-12-01T08:33:51;46.40;;;30.55;;
41323;SDS011;27073;51.128;4.220;2022-12-01T08:36:19;45.17;;;29.73;;
41323;SDS011;27073;51.128;4.220;2022-12-01T08:38:46;43.17;;;30.33;;
41323;SDS011;27073;51.128;4.220;2022-12-01T08:41:14;90.32;;;57.28;;
41323;SDS011;27073;51.128;4.220;2022-12-01T08:43:40;90.32;;;53.67;;
41323;SDS011;27073;51.128;4.220;2022-12-01T08:46:08;134.45;;;79.50;;
41323;SDS011;27073;51.128;4.220;2022-12-01T08:48:38;51.28;;;33.60;;
41323;SDS011;27073;51.128;4.220;2022-12-01T08:51:05;50.75;;;33.33;;
41323;SDS011;27073;51.128;4.220;2022-12-01T08:53:33;45.75;;;30.50;;
41323;SDS011;27073;51.128;4.220;2022-12-01T08:56:01;47.25;;;31.10;;
41323;SDS011;27073;51.128;4.220;2022-12-01T08:58:32;44.38;;;29.52;;
41323;SDS011;27073;51.128;4.220;2022-12-01T09:01:02;41.97;;;28.73;;
41323;SDS011;27073;51.128;4.220;2022-12-01T09:03:30;43.03;;;27.92;;
41323;SDS011;27073;51.128;4.220;2022-12-01T09:06:06;45.10;;;29.27;;
41323;SDS011;27073;51.128;4.220;2022-12-01T09:08:34;43.28;;;28.58;;
41323;SDS011;27073;51.128;4.220;2022-12-01T09:11:05;47.42;;;29.67;;
41323;SDS011;27073;51.128;4.220;2022-12-01T09:13:33;42.33;;;28.92;;
41323;SDS011;27073;51.128;4.220;2022-12-01T09:16:01;40.97;;;28.67;;
41323;SDS011;27073;51.128;4.220;2022-12-01T09:18:32;44.22;;;29.27;;
41323;SDS011;27073;51.128;4.220;2022-12-01T09:20:58;39.28;;;26.75;;
41323;SDS011;27073;51.128;4.220;2022-12-01T09:23:25;38.50;;;26.75;;
41323;SDS011;27073;51.128;4.220;2022-12-01T09:25:51;39.45;;;28.30;;
41323;SDS011;27073;51.128;4.220;2022-12-01T09:28:17;39.50;;;27.02;;
41323;SDS011;27073;51.128;4.220;2022-12-01T09:30:44;41.72;;;28.50;;
41323;SDS011;27073;51.128;4.220;2022-12-01T09:33:10;40.38;;;27.42;;
41323;SDS011;27073;51.128;4.220;2022-12-01T09:35:37;41.20;;;27.70;;
41323;SDS011;27073;51.128;4.220;2022-12-01T09:38:03;43.90;;;29.58;;
41323;SDS011;27073;51.128;4.220;2022-12-01T09:40:34;49.55;;;33.53;;
41323;SDS011;27073;51.128;4.220;2022-12-01T09:43:03;41.90;;;27.90;;
41323;SDS011;27073;51.128;4.220;2022-12-01T09:45:37;42.83;;;27.25;;
41323;SDS011;27073;51.128;4.220;2022-12-01T09:48:08;42.92;;;29.52;;
41323;SDS011;27073;51.128;4.220;2022-12-01T09:50:44;41.08;;;27.50;;
41323;SDS011;27073;51.128;4.220;2022-12-01T09:53:11;47.65;;;32.63;;
41323;SDS011;27073;51.128;4.220;2022-12-01T09:55:41;53.40;;;36.13;;
41323;SDS011;27073;51.128;4.220;2022-12-01T09:58:12;52.05;;;35.65;;
41323;SDS011;27073;51.128;4.220;2022-12-01T10:00:45;50.97;;;35.80;;
41323;SDS011;27073;51.128;4.220;2022-12-01T10:06:19;55.13;;;37.13;;
41323;SDS011;27073;51.128;4.220;2022-12-01T10:09:17;57.83;;;39.13;;
41323;SDS011;27073;51.128;4.220;2022-12-01T10:14:38;44.47;;;30.65;;
41323;SDS011;27073;51.128;4.220;2022-12-01T10:19:49;45.20;;;30.00;;
41323;SDS011;27073;51.128;4.220;2022-12-01T10:22:25;47.20;;;31.08;;
41323;SDS011;27073;51.128;4.220;2022-12-01T10:25:00;44.70;;;29.85;;
41323;SDS011;27073;51.128;4.220;2022-12-01T10:30:48;47.10;;;31.25;;
41323;SDS011;27073;51.128;4.220;2022-12-01T10:35:54;40.85;;;27.70;;
41323;SDS011;27073;51.128;4.220;2022-12-01T10:40:50;70.03;;;46.83;;
41323;SDS011;27073;51.128;4.220;2022-12-01T10:43:18;47.47;;;33.13;;
41323;SDS011;27073;51.128;4.220;2022-12-01T10:45:49;47.22;;;29.83;;
41323;SDS011;27073;51.128;4.220;2022-12-01T10:48:16;83.45;;;50.22;;
41323;SDS011;27073;51.128;4.220;2022-12-01T10:50:50;49.17;;;31.50;;
41323;SDS011;27073;51.128;4.220;2022-12-01T10:53:32;52.67;;;31.75;;
41323;SDS011;27073;51.128;4.220;2022-12-01T10:56:18;43.70;;;28.75;;
41323;SDS011;27073;51.128;4.220;2022-12-01T10:58:52;79.43;;;51.15;;
41323;SDS011;27073;51.128;4.220;2022-12-01T11:01:22;65.60;;;42.95;;
41323;SDS011;27073;51.128;4.220;2022-12-01T11:03:56;95.90;;;61.30;;
41323;SDS011;27073;51.128;4.220;2022-12-01T11:06:29;53.42;;;35.72;;
41323;SDS011;27073;51.128;4.220;2022-12-01T11:08:56;57.83;;;36.83;;
41323;SDS011;27073;51.128;4.220;2022-12-01T11:13:59;52.05;;;34.70;;
41323;SDS011;27073;51.128;4.220;2022-12-01T11:16:34;45.70;;;31.42;;
41323;SDS011;27073;51.128;4.220;2022-12-01T11:19:16;41.35;;;29.92;;
41323;SDS011;27073;51.128;4.220;2022-12-01T11:21:47;48.08;;;31.60;;
41323;SDS011;27073;51.128;4.220;2022-12-01T11:24:26;44.95;;;28.88;;
41323;SDS011;27073;51.128;4.220;2022-12-01T11:27:19;41.05;;;27.50;;
41323;SDS011;27073;51.128;4.220;2022-12-01T11:29:51;40.30;;;27.67;;
41323;SDS011;27073;51.128;4.220;2022-12-01T11:32:25;37.92;;;25.45;;
41323;SDS011;27073;51.128;4.220;2022-12-01T11:35:03;40.92;;;27.08;;
41323;SDS011;27073;51.128;4.220;2022-12-01T11:37:44;38.45;;;26.05;;
41323;SDS011;27073;51.128;4.220;2022-12-01T11:43:00;36.30;;;23.90;;
41323;SDS011;27073;51.128;4.220;2022-12-01T11:45:33;34.20;;;24.70;;
41323;SDS011;27073;51.128;4.220;2022-12-01T11:50:30;32.03;;;22.17;;
41323;SDS011;27073;51.128;4.220;2022-12-01T11:53:00;31.20;;;22.17;;
41323;SDS011;27073;51.128;4.220;2022-12-01T11:55:27;33.95;;;22.70;;
41323;SDS011;27073;51.128;4.220;2022-12-01T11:57:56;43.30;;;29.30;;
41323;SDS011;27073;51.128;4.220;2022-12-01T12:00:41;51.85;;;34.40;;
41323;SDS011;27073;51.128;4.220;2022-12-01T12:03:22;35.13;;;25.63;;
41323;SDS011;27073;51.128;4.220;2022-12-01T12:06:08;35.20;;;25.02;;
41323;SDS011;27073;51.128;4.220;2022-12-01T12:11:16;43.08;;;29.10;;
41323;SDS011;27073;51.128;4.220;2022-12-01T12:16:50;39.83;;;26.23;;
41323;SDS011;27073;51.128;4.220;2022-12-01T12:30:38;38.22;;;22.58;;
41323;SDS011;27073;51.128;4.220;2022-12-01T12:36:26;33.08;;;23.95;;
41323;SDS011;27073;51.128;4.220;2022-12-01T12:39:21;33.92;;;24.00;;
41323;SDS011;27073;51.128;4.220;2022-12-01T12:42:07;35.85;;;25.17;;
41323;SDS011;27073;51.128;4.220;2022-12-01T12:52:48;34.60;;;24.30;;
41323;SDS011;27073;51.128;4.220;2022-12-01T12:57:54;33.50;;;24.98;;
41323;SDS011;27073;51.128;4.220;2022-12-01T13:00:25;36.67;;;23.80;;
41323;SDS011;27073;51.128;4.220;2022-12-01T13:03:01;35.00;;;24.85;;
41323;SDS011;27073;51.128;4.220;2022-12-01T13:09:15;29.13;;;22.92;;
41323;SDS011;27073;51.128;4.220;2022-12-01T13:11:19;31.17;;;22.25;;
41323;SDS011;27073;51.128;4.220;2022-12-01T13:13:53;36.95;;;22.55;;
41323;SDS011;27073;51.128;4.220;2022-12-01T13:16:35;33.72;;;21.67;;
41323;SDS011;27073;51.128;4.220;2022-12-01T13:19:21;28.10;;;20.70;;
41323;SDS011;27073;51.128;4.220;2022-12-01T13:21:53;28.83;;;20.42;;
41323;SDS011;27073;51.128;4.220;2022-12-01T13:24:20;27.95;;;20.92;;
41323;SDS011;27073;51.128;4.220;2022-12-01T13:26:49;28.55;;;21.23;;
41323;SDS011;27073;51.128;4.220;2022-12-01T13:29:33;30.40;;;20.02;;
41323;SDS011;27073;51.128;4.220;2022-12-01T13:32:02;30.13;;;19.75;;
41323;SDS011;27073;51.128;4.220;2022-12-01T13:34:36;25.00;;;18.42;;
41323;SDS011;27073;51.128;4.220;2022-12-01T13:37:05;27.20;;;18.95;;
41323;SDS011;27073;51.128;4.220;2022-12-01T13:39:33;28.63;;;22.33;;
41323;SDS011;27073;51.128;4.220;2022-12-01T13:42:05;75.75;;;52.85;;
41323;SDS011;27073;51.128;4.220;2022-12-01T13:47:28;29.50;;;20.17;;
41323;SDS011;27073;51.128;4.220;2022-12-01T13:52:48;26.98;;;18.63;;
41323;SDS011;27073;51.128;4.220;2022-12-01T13:57:42;35.97;;;23.77;;
41323;SDS011;27073;51.128;4.220;2022-12-01T14:08:25;25.17;;;19.38;;
41323;SDS011;27073;51.128;4.220;2022-12-01T14:11:17;26.25;;;19.33;;
41323;SDS011;27073;51.128;4.220;2022-12-01T14:13:51;34.50;;;23.80;;
41323;SDS011;27073;51.128;4.220;2022-12-01T14:16:22;25.52;;;18.55;;
41323;SDS011;27073;51.128;4.220;2022-12-01T14:18:50;24.83;;;19.10;;
41323;SDS011;27073;51.128;4.220;2022-12-01T14:21:38;26.15;;;18.95;;
41323;SDS011;27073;51.128;4.220;2022-12-01T14:24:14;27.70;;;17.98;;
41323;SDS011;27073;51.128;4.220;2022-12-01T14:26:47;25.45;;;18.27;;
41323;SDS011;27073;51.128;4.220;2022-12-01T14:34:27;22.30;;;16.33;;
41323;SDS011;27073;51.128;4.220;2022-12-01T14:40:03;27.90;;;16.88;;
41323;SDS011;27073;51.128;4.220;2022-12-01T14:42:25;25.02;;;17.90;;
41323;SDS011;27073;51.128;4.220;2022-12-01T14:45:12;26.80;;;19.65;;
41323;SDS011;27073;51.128;4.220;2022-12-01T14:47:43;27.40;;;19.05;;
41323;SDS011;27073;51.128;4.220;2022-12-01T14:50:15;27.52;;;18.90;;
41323;SDS011;27073;51.128;4.220;2022-12-01T14:52:52;25.02;;;18.67;;
41323;SDS011;27073;51.128;4.220;2022-12-01T14:55:38;27.17;;;18.83;;
41323;SDS011;27073;51.128;4.220;2022-12-01T14:58:12;29.15;;;19.70;;
41323;SDS011;27073;51.128;4.220;2022-12-01T15:01:28;33.35;;;20.58;;
41323;SDS011;27073;51.128;4.220;2022-12-01T15:03:35;31.58;;;21.52;;
41323;SDS011;27073;51.128;4.220;2022-12-01T15:06:01;31.33;;;20.98;;
41323;SDS011;27073;51.128;4.220;2022-12-01T15:08:28;29.05;;;20.25;;
41323;SDS011;27073;51.128;4.220;2022-12-01T15:10:58;31.17;;;21.63;;
41323;SDS011;27073;51.128;4.220;2022-12-01T15:13:43;32.38;;;22.40;;
41323;SDS011;27073;51.128;4.220;2022-12-01T15:16:16;30.50;;;21.45;;
41323;SDS011;27073;51.128;4.220;2022-12-01T15:18:46;30.17;;;19.88;;
41323;SDS011;27073;51.128;4.220;2022-12-01T15:21:14;28.85;;;19.75;;
41323;SDS011;27073;51.128;4.220;2022-12-01T15:26:36;29.35;;;21.02;;
41323;SDS011;27073;51.128;4.220;2022-12-01T15:31:42;30.58;;;21.23;;
41323;SDS011;27073;51.128;4.220;2022-12-01T15:34:13;34.08;;;21.17;;
41323;SDS011;27073;51.128;4.220;2022-12-01T15:36:42;32.63;;;22.50;;
41323;SDS011;27073;51.128;4.220;2022-12-01T15:39:11;37.72;;;25.05;;
41323;SDS011;27073;51.128;4.220;2022-12-01T15:41:40;38.40;;;28.38;;
41323;SDS011;27073;51.128;4.220;2022-12-01T15:44:16;41.80;;;27.48;;
41323;SDS011;27073;51.128;4.220;2022-12-01T15:47:28;109.22;;;56.63;;
41323;SDS011;27073;51.128;4.220;2022-12-01T15:49:56;52.55;;;31.77;;
41323;SDS011;27073;51.128;4.220;2022-12-01T15:52:22;53.95;;;33.72;;
41323;SDS011;27073;51.128;4.220;2022-12-01T15:54:48;81.85;;;48.40;;
41323;SDS011;27073;51.128;4.220;2022-12-01T15:57:18;54.03;;;35.92;;
41323;SDS011;27073;51.128;4.220;2022-12-01T15:59:46;48.33;;;32.42;;
41323;SDS011;27073;51.128;4.220;2022-12-01T16:04:43;50.20;;;32.72;;
41323;SDS011;27073;51.128;4.220;2022-12-01T16:07:10;47.05;;;30.90;;
41323;SDS011;27073;51.128;4.220;2022-12-01T16:17:52;44.75;;;31.55;;
41323;SDS011;27073;51.128;4.220;2022-12-01T16:22:47;50.42;;;30.65;;
41323;SDS011;27073;51.128;4.220;2022-12-01T16:25:17;44.00;;;31.45;;
41323;SDS011;27073;51.128;4.220;2022-12-01T16:27:49;42.15;;;29.48;;
41323;SDS011;27073;51.128;4.220;2022-12-01T16:30:20;45.17;;;30.50;;
41323;SDS011;27073;51.128;4.220;2022-12-01T16:32:53;42.20;;;29.83;;
41323;SDS011;27073;51.128;4.220;2022-12-01T16:35:27;48.90;;;32.08;;
41323;SDS011;27073;51.128;4.220;2022-12-01T16:37:55;44.67;;;30.27;;
41323;SDS011;27073;51.128;4.220;2022-12-01T16:40:22;41.65;;;28.70;;
41323;SDS011;27073;51.128;4.220;2022-12-01T16:42:49;41.20;;;29.83;;
41323;SDS011;27073;51.128;4.220;2022-12-01T16:45:15;40.95;;;27.85;;
41323;SDS011;27073;51.128;4.220;2022-12-01T16:47:42;44.28;;;30.45;;
41323;SDS011;27073;51.128;4.220;2022-12-01T16:50:13;46.03;;;29.63;;
41323;SDS011;27073;51.128;4.220;2022-12-01T16:52:40;45.03;;;29.95;;
41323;SDS011;27073;51.128;4.220;2022-12-01T16:55:17;41.63;;;29.23;;
41323;SDS011;27073;51.128;4.220;2022-12-01T16:57:48;42.10;;;28.23;;
41323;SDS011;27073;51.128;4.220;2022-12-01T17:00:14;42.28;;;29.23;;
41323;SDS011;27073;51.128;4.220;2022-12-01T17:02:40;46.30;;;29.65;;
41323;SDS011;27073;51.128;4.220;2022-12-01T17:05:05;35.72;;;27.30;;
41323;SDS011;27073;51.128;4.220;2022-12-01T17:07:31;35.22;;;24.08;;
41323;SDS011;27073;51.128;4.220;2022-12-01T17:09:57;36.40;;;25.70;;
41323;SDS011;27073;51.128;4.220;2022-12-01T17:12:23;43.45;;;27.30;;
41323;SDS011;27073;51.128;4.220;2022-12-01T17:14:50;39.97;;;27.73;;